createdAt,value
2022-12-25T00:01:33.533Z,11.68
2022-12-25T00:04:00.762Z,8.73
2022-12-25T00:06:28.158Z,8.10
2022-12-25T00:08:55.277Z,7.47
2022-12-25T00:11:22.716Z,8.32
2022-12-25T00:13:50.247Z,9.38
2022-12-25T00:16:21.623Z,8.70
2022-12-25T00:18:50.000Z,9.03
2022-12-25T00:21:18.934Z,7.18
2022-12-25T00:23:46.240Z,11.13
2022-12-25T00:26:17.895Z,11.18
2022-12-25T00:28:45.315Z,9.50
2022-12-25T00:31:16.638Z,8.87
2022-12-25T00:33:46.501Z,6.53
2022-12-25T00:36:16.199Z,8.88
2022-12-25T00:38:43.885Z,6.97
2022-12-25T00:41:15.123Z,6.80
2022-12-25T00:43:43.333Z,6.60
2022-12-25T00:46:13.324Z,6.72
2022-12-25T00:48:41.116Z,7.65
2022-12-25T00:51:11.284Z,7.75
2022-12-25T00:53:38.552Z,5.72
2022-12-25T00:56:08.149Z,7.63
2022-12-25T00:58:36.252Z,6.40
2022-12-25T01:01:04.398Z,5.57
2022-12-25T01:03:31.632Z,5.22
2022-12-25T01:06:02.631Z,5.65
2022-12-25T01:08:34.031Z,4.30
2022-12-25T01:11:08.199Z,3.90
2022-12-25T01:13:37.560Z,5.38
2022-12-25T01:16:11.776Z,5.47
2022-12-25T01:18:39.310Z,4.55
2022-12-25T01:21:21.148Z,4.07
2022-12-25T01:23:51.048Z,5.60
2022-12-25T01:26:21.446Z,4.97
2022-12-25T01:28:49.940Z,5.22
2022-12-25T01:31:20.074Z,4.50
2022-12-25T01:33:47.669Z,6.43
2022-12-25T01:36:17.398Z,7.47
2022-12-25T01:38:45.716Z,4.30
2022-12-25T01:41:15.248Z,5.45
2022-12-25T01:44:15.803Z,4.57
2022-12-25T01:46:43.995Z,4.43
2022-12-25T01:49:23.040Z,7.20
2022-12-25T01:52:04.298Z,6.15
2022-12-25T01:54:44.051Z,6.07
2022-12-25T01:57:20.671Z,3.90
2022-12-25T01:59:49.097Z,4.87
2022-12-25T02:02:16.515Z,4.18
2022-12-25T02:05:14.244Z,5.80
2022-12-25T02:07:42.543Z,4.95
2022-12-25T02:10:11.658Z,6.53
2022-12-25T02:12:40.196Z,4.83
2022-12-25T02:15:13.024Z,7.53
2022-12-25T02:18:03.189Z,4.70
2022-12-25T02:21:11.296Z,5.22
2022-12-25T02:24:02.467Z,8.68
2022-12-25T02:26:55.709Z,3.57
2022-12-25T02:29:43.911Z,7.38
2022-12-25T02:33:14.798Z,7.85
2022-12-25T02:35:46.855Z,4.63
2022-12-25T02:38:24.708Z,5.63
2022-12-25T02:40:58.287Z,5.53
2022-12-25T02:43:53.305Z,6.95
2022-12-25T02:46:42.859Z,6.15
2022-12-25T02:49:42.485Z,6.15
2022-12-25T02:52:34.439Z,6.10
2022-12-25T02:55:41.871Z,6.50
2022-12-25T02:58:35.716Z,5.32
2022-12-25T03:01:36.426Z,7.03
2022-12-25T03:04:28.902Z,5.03
2022-12-25T03:07:21.557Z,5.75
2022-12-25T03:10:25.284Z,4.47
2022-12-25T03:13:11.881Z,5.40
2022-12-25T03:15:57.785Z,5.07
2022-12-25T03:18:28.479Z,6.68
2022-12-25T03:21:14.991Z,7.40
2022-12-25T03:24:08.397Z,6.70
2022-12-25T03:26:54.379Z,4.68
2022-12-25T03:29:47.908Z,6.05
2022-12-25T03:32:45.295Z,7.38
2022-12-25T03:35:44.562Z,6.65
2022-12-25T03:38:52.080Z,7.70
2022-12-25T03:42:03.591Z,5.07
2022-12-25T03:44:53.234Z,6.15
2022-12-25T03:47:35.507Z,8.45
2022-12-25T03:50:34.225Z,5.78
2022-12-25T03:53:28.881Z,8.07
2022-12-25T03:56:16.026Z,6.95
2022-12-25T03:59:21.057Z,7.75
2022-12-25T04:02:10.399Z,5.07
2022-12-25T04:04:56.574Z,7.65
2022-12-25T04:07:42.621Z,13.27
2022-12-25T04:10:29.344Z,8.88
2022-12-25T04:13:15.502Z,10.70
2022-12-25T04:16:01.042Z,11.63
2022-12-25T04:18:47.049Z,13.35
2022-12-25T04:21:33.078Z,8.87
2022-12-25T04:24:19.157Z,8.85
2022-12-25T04:27:12.443Z,9.63
2022-12-25T04:29:58.331Z,11.13
2022-12-25T04:32:44.001Z,9.82
2022-12-25T04:35:30.376Z,9.27
2022-12-25T04:37:57.703Z,7.20
2022-12-25T04:40:25.116Z,7.25
2022-12-25T04:42:53.218Z,9.27
2022-12-25T04:45:20.762Z,9.35
2022-12-25T04:47:47.995Z,9.97
2022-12-25T04:50:15.367Z,6.97
2022-12-25T04:52:42.829Z,8.13
2022-12-25T04:55:12.011Z,11.07
2022-12-25T04:57:39.129Z,8.65
2022-12-25T05:00:07.653Z,8.77
2022-12-25T05:02:35.090Z,7.40
2022-12-25T05:05:02.476Z,7.45
2022-12-25T05:07:29.662Z,7.22
2022-12-25T05:09:56.851Z,9.65
2022-12-25T05:12:24.326Z,7.00
2022-12-25T05:14:51.415Z,11.45
2022-12-25T05:17:18.599Z,6.80
2022-12-25T05:19:45.685Z,6.57
2022-12-25T05:22:12.756Z,10.18
2022-12-25T05:24:39.825Z,8.37
2022-12-25T05:27:06.937Z,8.32
2022-12-25T05:29:34.025Z,7.95
2022-12-25T05:32:01.579Z,8.98
2022-12-25T05:34:28.704Z,7.72
2022-12-25T05:36:56.688Z,11.07
2022-12-25T05:39:24.246Z,5.97
2022-12-25T05:41:51.400Z,6.32
2022-12-25T05:44:18.477Z,7.68
2022-12-25T05:46:45.632Z,7.32
2022-12-25T05:49:13.197Z,6.23
2022-12-25T05:51:40.424Z,6.85
2022-12-25T05:54:07.547Z,6.50
2022-12-25T05:56:34.977Z,7.45
2022-12-25T05:59:02.118Z,8.15
2022-12-25T06:01:29.559Z,6.43
2022-12-25T06:03:57.713Z,6.35
2022-12-25T06:06:25.053Z,5.85
2022-12-25T06:08:55.243Z,6.35
2022-12-25T06:11:22.477Z,9.43
2022-12-25T06:13:51.912Z,7.00
2022-12-25T06:16:19.933Z,6.90
2022-12-25T06:18:50.142Z,8.35
2022-12-25T06:21:17.220Z,6.28
2022-12-25T06:23:45.105Z,8.20
2022-12-25T06:26:18.045Z,5.73
2022-12-25T06:28:45.555Z,6.72
2022-12-25T06:31:20.307Z,8.95
2022-12-25T06:33:48.570Z,6.43
2022-12-25T06:36:27.152Z,5.95
2022-12-25T06:38:54.630Z,6.30
2022-12-25T06:41:25.303Z,10.00
2022-12-25T06:43:55.383Z,7.90
2022-12-25T06:46:25.379Z,5.53
2022-12-25T06:48:52.582Z,7.15
2022-12-25T06:51:30.366Z,7.00
2022-12-25T06:53:59.044Z,8.93
2022-12-25T06:56:28.628Z,7.95
2022-12-25T06:59:05.113Z,6.97
2022-12-25T07:01:46.917Z,8.48
2022-12-25T07:04:39.488Z,8.23
2022-12-25T07:07:09.804Z,6.10
2022-12-25T07:09:39.201Z,7.15
2022-12-25T07:12:24.286Z,5.63
2022-12-25T07:14:55.416Z,9.52
2022-12-25T07:17:23.913Z,6.47
2022-12-25T07:19:51.435Z,7.50
2022-12-25T07:22:18.899Z,7.10
2022-12-25T07:24:45.962Z,7.07
2022-12-25T07:27:13.324Z,7.20
2022-12-25T07:29:40.603Z,7.87
2022-12-25T07:32:08.377Z,7.00
2022-12-25T07:34:35.495Z,6.03
2022-12-25T07:37:02.989Z,6.95
2022-12-25T07:39:30.437Z,5.97
2022-12-25T07:41:59.787Z,6.10
2022-12-25T07:44:28.127Z,9.90
2022-12-25T07:46:55.281Z,7.43
2022-12-25T07:49:22.502Z,5.25
2022-12-25T07:51:49.595Z,5.70
2022-12-25T07:54:16.810Z,7.57
2022-12-25T07:56:43.863Z,6.28
2022-12-25T07:59:11.018Z,6.60
2022-12-25T08:01:38.255Z,7.50
2022-12-25T08:04:05.612Z,8.20
2022-12-25T08:06:35.435Z,5.57
2022-12-25T08:09:08.357Z,7.35
2022-12-25T08:11:36.423Z,9.15
2022-12-25T08:14:09.318Z,5.28
2022-12-25T08:16:39.790Z,6.10
2022-12-25T08:19:08.277Z,6.70
2022-12-25T08:21:35.401Z,6.47
2022-12-25T08:24:03.289Z,5.80
2022-12-25T08:26:30.721Z,5.53
2022-12-25T08:28:57.919Z,7.22
2022-12-25T08:31:29.032Z,7.77
2022-12-25T08:33:58.520Z,7.50
2022-12-25T08:36:26.327Z,7.10
2022-12-25T08:39:00.276Z,5.97
2022-12-25T08:41:30.161Z,5.63
2022-12-25T08:43:57.431Z,6.13
2022-12-25T08:46:24.869Z,6.22
2022-12-25T08:48:52.058Z,8.38
2022-12-25T08:51:21.536Z,6.80
2022-12-25T08:53:51.327Z,8.02
2022-12-25T08:56:19.909Z,7.80
2022-12-25T08:58:47.329Z,7.35
2022-12-25T09:01:14.613Z,7.05
2022-12-25T09:03:43.020Z,9.30
2022-12-25T09:06:15.088Z,11.13
2022-12-25T09:08:48.675Z,12.73
2022-12-25T09:11:18.834Z,9.23
2022-12-25T09:13:46.675Z,8.18
2022-12-25T09:16:17.922Z,9.32
2022-12-25T09:18:45.186Z,9.20
2022-12-25T09:21:14.906Z,8.50
2022-12-25T09:23:42.741Z,8.80
2022-12-25T09:26:14.234Z,7.60
2022-12-25T09:28:48.438Z,8.15
2022-12-25T09:31:17.730Z,9.88
2022-12-25T09:33:44.877Z,8.70
2022-12-25T09:36:12.489Z,9.27
2022-12-25T09:38:39.929Z,8.52
2022-12-25T09:41:45.042Z,9.93
2022-12-25T09:44:25.682Z,13.95
2022-12-25T09:47:26.141Z,13.57
2022-12-25T09:50:16.118Z,18.58
2022-12-25T09:52:57.541Z,14.35
2022-12-25T09:55:27.323Z,14.63
2022-12-25T09:58:02.637Z,11.80
2022-12-25T10:00:38.783Z,15.03
2022-12-25T10:03:44.419Z,10.63
2022-12-25T10:06:27.791Z,9.13
2022-12-25T10:09:22.923Z,8.88
2022-12-25T10:12:10.782Z,9.45
2022-12-25T10:15:21.994Z,7.80
2022-12-25T10:18:23.650Z,9.23
2022-12-25T10:20:53.014Z,8.38
2022-12-25T10:23:30.649Z,7.65
2022-12-25T10:25:57.832Z,8.48
2022-12-25T10:28:39.010Z,9.63
2022-12-25T10:31:22.856Z,7.95
2022-12-25T10:33:53.171Z,10.23
2022-12-25T10:36:27.797Z,8.90
2022-12-25T10:38:56.082Z,8.10
2022-12-25T10:41:41.682Z,7.27
2022-12-25T10:44:21.231Z,8.23
2022-12-25T10:46:51.504Z,9.25
2022-12-25T10:49:22.780Z,9.35
2022-12-25T10:51:51.196Z,10.70
2022-12-25T10:54:33.498Z,9.70
2022-12-25T10:57:07.632Z,8.73
2022-12-25T10:59:42.921Z,9.40
2022-12-25T11:02:38.230Z,8.77
2022-12-25T11:05:10.104Z,10.77
2022-12-25T11:07:50.976Z,10.10
2022-12-25T11:10:38.943Z,8.90
2022-12-25T11:13:08.796Z,10.05
2022-12-25T11:15:38.828Z,13.40
2022-12-25T11:18:26.705Z,11.38
2022-12-25T11:21:00.366Z,10.03
2022-12-25T11:23:31.486Z,9.77
2022-12-25T11:26:05.342Z,8.82
2022-12-25T11:28:36.519Z,7.20
2022-12-25T11:31:14.856Z,7.53
2022-12-25T11:33:51.056Z,8.43
2022-12-25T11:36:50.871Z,7.80
2022-12-25T11:39:35.672Z,8.63
2022-12-25T11:42:18.914Z,9.43
2022-12-25T11:45:08.861Z,14.27
2022-12-25T11:48:04.445Z,8.27
2022-12-25T11:50:47.252Z,8.88
2022-12-25T11:53:35.047Z,7.32
2022-12-25T11:56:21.009Z,8.05
2022-12-25T11:59:14.943Z,8.02
2022-12-25T12:02:25.993Z,11.70
2022-12-25T12:05:42.743Z,11.98
2022-12-25T12:08:11.238Z,11.70
2022-12-25T12:11:20.599Z,12.82
2022-12-25T12:14:10.427Z,11.13
2022-12-25T12:16:37.753Z,8.70
2022-12-25T12:19:26.353Z,8.80
2022-12-25T12:21:59.191Z,10.68
2022-12-25T12:24:40.786Z,13.73
2022-12-25T12:27:34.119Z,10.85
2022-12-25T12:30:01.575Z,9.63
2022-12-25T12:32:44.360Z,11.00
2022-12-25T12:35:19.724Z,9.18
2022-12-25T12:37:54.381Z,7.80
2022-12-25T12:40:39.889Z,8.90
2022-12-25T12:43:27.591Z,7.93
2022-12-25T12:45:59.279Z,7.38
2022-12-25T12:48:29.363Z,9.38
2022-12-25T12:51:10.179Z,10.95
2022-12-25T12:53:40.788Z,9.25
2022-12-25T12:56:19.697Z,9.87
2022-12-25T12:58:51.076Z,10.77
2022-12-25T13:01:58.212Z,9.75
2022-12-25T13:04:42.727Z,14.23
2022-12-25T13:07:45.135Z,18.02
2022-12-25T13:10:39.489Z,23.47
2022-12-25T13:13:25.080Z,19.42
2022-12-25T13:15:52.854Z,22.20
2022-12-25T13:18:20.975Z,24.92
2022-12-25T13:20:58.130Z,18.85
2022-12-25T13:23:32.382Z,18.63
2022-12-25T13:26:04.109Z,17.65
2022-12-25T13:28:36.792Z,21.38
2022-12-25T13:31:05.208Z,22.40
2022-12-25T13:33:33.258Z,20.85
2022-12-25T13:36:00.593Z,20.00
2022-12-25T13:38:29.343Z,19.95
2022-12-25T13:41:16.007Z,22.80
2022-12-25T13:43:44.559Z,20.80
2022-12-25T13:46:15.668Z,17.77
2022-12-25T13:48:43.461Z,18.37
2022-12-25T13:51:16.956Z,18.08
2022-12-25T13:53:44.570Z,15.68
2022-12-25T13:56:16.305Z,16.42
2022-12-25T13:58:46.219Z,16.33
2022-12-25T14:01:16.872Z,14.07
2022-12-25T14:03:46.883Z,16.40
2022-12-25T14:06:24.696Z,15.60
2022-12-25T14:08:53.411Z,13.27
2022-12-25T14:11:24.267Z,13.60
2022-12-25T14:14:18.229Z,14.23
2022-12-25T14:16:51.218Z,18.60
2022-12-25T14:19:33.906Z,13.35
2022-12-25T14:22:18.867Z,13.25
2022-12-25T14:24:46.647Z,12.18
2022-12-25T14:27:30.399Z,13.03
2022-12-25T14:29:59.778Z,13.07
2022-12-25T14:32:31.684Z,11.95
2022-12-25T14:35:04.806Z,18.08
2022-12-25T14:37:34.103Z,12.52
2022-12-25T14:40:31.581Z,11.77
2022-12-25T14:43:25.972Z,11.18
2022-12-25T14:46:00.828Z,15.75
2022-12-25T14:48:31.332Z,10.25
2022-12-25T14:51:07.521Z,11.40
2022-12-25T14:53:49.458Z,10.80
2022-12-25T14:56:22.568Z,10.77
2022-12-25T14:59:00.300Z,13.18
2022-12-25T15:01:41.143Z,11.65
2022-12-25T15:04:11.336Z,11.18
2022-12-25T15:07:09.681Z,9.53
2022-12-25T15:09:37.811Z,10.68
2022-12-25T15:12:05.357Z,10.57
2022-12-25T15:14:32.432Z,10.80
2022-12-25T15:17:01.483Z,9.82
2022-12-25T15:19:37.864Z,10.73
2022-12-25T15:22:06.336Z,13.82
2022-12-25T15:24:33.480Z,14.95
2022-12-25T15:27:00.987Z,12.35
2022-12-25T15:32:21.928Z,10.23
2022-12-25T15:34:50.245Z,11.88
2022-12-25T15:37:20.431Z,10.13
2022-12-25T15:39:47.529Z,12.95
2022-12-25T15:42:19.515Z,14.95
2022-12-25T15:44:46.913Z,11.27
2022-12-25T15:47:16.356Z,11.50
2022-12-25T15:49:43.681Z,8.38
2022-12-25T15:52:16.920Z,10.40
2022-12-25T15:54:44.333Z,11.10
2022-12-25T15:57:20.534Z,9.33
2022-12-25T15:59:47.863Z,10.63
2022-12-25T16:02:19.307Z,11.35
2022-12-25T16:04:47.232Z,14.73
2022-12-25T16:07:17.664Z,16.63
2022-12-25T16:09:45.127Z,11.47
2022-12-25T16:12:12.534Z,10.82
2022-12-25T16:14:39.598Z,11.75
2022-12-25T16:17:06.762Z,11.40
2022-12-25T16:19:33.975Z,11.27
2022-12-25T16:22:01.174Z,10.67
2022-12-25T16:24:28.248Z,13.35
2022-12-25T16:26:55.369Z,10.82
2022-12-25T16:29:22.421Z,14.52
2022-12-25T16:31:49.493Z,11.38
2022-12-25T16:34:16.570Z,11.57
2022-12-25T16:36:43.662Z,12.55
2022-12-25T16:39:10.768Z,10.90
2022-12-25T16:41:37.861Z,10.13
2022-12-25T16:44:10.248Z,12.85
2022-12-25T16:46:40.017Z,11.97
2022-12-25T16:49:07.342Z,10.55
2022-12-25T16:51:34.561Z,9.90
2022-12-25T16:54:01.740Z,10.70
2022-12-25T16:56:30.741Z,11.73
2022-12-25T16:58:58.967Z,12.63
2022-12-25T17:01:26.234Z,12.80
2022-12-25T17:03:53.534Z,10.75
2022-12-25T17:06:28.251Z,12.43
2022-12-25T17:08:58.882Z,14.85
2022-12-25T17:11:30.390Z,11.33
2022-12-25T17:14:01.975Z,13.32
2022-12-25T17:16:35.764Z,10.73
2022-12-25T17:19:15.960Z,12.55
2022-12-25T17:21:43.156Z,12.77
2022-12-25T17:24:10.685Z,10.53
2022-12-25T17:26:38.067Z,13.77
2022-12-25T17:29:05.211Z,13.15
2022-12-25T17:31:32.537Z,11.95
2022-12-25T17:34:02.118Z,10.38
2022-12-25T17:36:29.838Z,10.20
2022-12-25T17:38:59.689Z,15.60
2022-12-25T17:41:27.113Z,13.32
2022-12-25T17:43:54.336Z,11.48
2022-12-25T17:46:25.582Z,12.05
2022-12-25T17:48:56.628Z,9.93
2022-12-25T17:51:26.454Z,12.77
2022-12-25T17:53:57.083Z,14.02
2022-12-25T17:56:25.396Z,13.25
2022-12-25T17:58:59.217Z,12.73
2022-12-25T18:01:28.722Z,16.10
2022-12-25T18:03:56.194Z,16.20
2022-12-25T18:06:26.081Z,12.57
2022-12-25T18:08:55.805Z,11.75
2022-12-25T18:11:29.128Z,16.63
2022-12-25T18:13:58.237Z,11.33
2022-12-25T18:16:27.470Z,11.27
2022-12-25T18:18:54.691Z,13.35
2022-12-25T18:21:23.183Z,12.50
2022-12-25T18:23:50.936Z,15.80
2022-12-25T18:26:20.212Z,12.73
2022-12-25T18:28:48.997Z,15.93
2022-12-25T18:31:27.229Z,11.75
2022-12-25T18:33:54.804Z,12.32
2022-12-25T18:36:25.918Z,12.63
2022-12-25T18:38:55.354Z,15.10
2022-12-25T18:41:22.999Z,18.05
2022-12-25T18:43:54.148Z,16.65
2022-12-25T18:46:27.619Z,15.35
2022-12-25T18:48:56.740Z,11.95
2022-12-25T18:51:24.557Z,14.13
2022-12-25T18:53:51.749Z,13.10
2022-12-25T18:56:20.177Z,12.63
2022-12-25T18:58:48.072Z,13.35
2022-12-25T19:01:21.986Z,14.13
2022-12-25T19:03:51.574Z,14.77
2022-12-25T19:06:28.716Z,13.85
2022-12-25T19:08:56.379Z,13.07
2022-12-25T19:11:23.502Z,12.13
2022-12-25T19:13:50.613Z,12.82
2022-12-25T19:16:18.247Z,13.33
2022-12-25T19:18:45.997Z,19.02
2022-12-25T19:21:13.196Z,14.52
2022-12-25T19:23:40.582Z,17.10
2022-12-25T19:26:09.526Z,16.15
2022-12-25T19:28:38.059Z,16.00
2022-12-25T19:31:07.928Z,12.18
2022-12-25T19:33:37.204Z,15.13
2022-12-25T19:36:11.648Z,14.02
2022-12-25T19:38:39.092Z,17.05
2022-12-25T19:41:15.046Z,19.20
2022-12-25T19:43:44.428Z,14.43
2022-12-25T19:46:28.738Z,21.45
2022-12-25T19:48:56.528Z,14.65
2022-12-25T19:51:27.750Z,26.02
2022-12-25T19:53:56.361Z,22.53
2022-12-25T19:56:24.831Z,23.88
2022-12-25T19:58:52.037Z,20.25
2022-12-25T20:01:21.872Z,14.68
2022-12-25T20:03:49.986Z,19.17
2022-12-25T20:06:27.986Z,16.87
2022-12-25T20:08:59.499Z,14.60
2022-12-25T20:11:29.150Z,19.70
2022-12-25T20:13:56.863Z,10.23
2022-12-25T20:16:26.049Z,10.05
2022-12-25T20:18:54.382Z,10.33
2022-12-25T20:21:23.751Z,9.32
2022-12-25T20:23:52.521Z,9.77
2022-12-25T20:26:24.016Z,11.82
2022-12-25T20:28:51.805Z,14.82
2022-12-25T20:31:20.955Z,17.63
2022-12-25T20:33:48.241Z,11.00
2022-12-25T20:36:15.994Z,20.73
2022-12-25T20:38:43.067Z,10.88
2022-12-25T20:41:30.190Z,15.27
2022-12-25T20:43:58.123Z,12.80
2022-12-25T20:46:25.895Z,16.00
2022-12-25T20:48:54.274Z,17.42
2022-12-25T20:51:25.098Z,12.45
2022-12-25T20:53:53.298Z,13.23
2022-12-25T20:56:24.582Z,12.13
2022-12-25T20:59:00.127Z,12.65
2022-12-25T21:01:29.652Z,12.55
2022-12-25T21:03:58.648Z,15.93
2022-12-25T21:06:26.516Z,10.27
2022-12-25T21:08:53.769Z,14.90
2022-12-25T21:11:21.610Z,12.32
2022-12-25T21:13:49.196Z,11.60
2022-12-25T21:16:20.811Z,14.27
2022-12-25T21:18:49.878Z,13.30
2022-12-25T21:21:17.055Z,12.10
2022-12-25T21:23:45.638Z,13.73
2022-12-25T21:26:18.985Z,13.73
2022-12-25T21:28:48.681Z,12.98
2022-12-25T21:31:16.601Z,13.80
2022-12-25T21:33:53.312Z,15.70
2022-12-25T21:36:41.440Z,13.93
2022-12-25T21:39:10.006Z,15.05
2022-12-25T21:41:38.768Z,15.35
2022-12-25T21:44:07.136Z,16.80
2022-12-25T21:46:34.802Z,11.87
2022-12-25T21:49:02.261Z,14.93
2022-12-25T21:51:51.441Z,13.55
2022-12-25T21:54:21.409Z,11.20
2022-12-25T21:56:50.269Z,10.02
2022-12-25T21:59:21.874Z,14.43
2022-12-25T22:01:51.043Z,12.60
2022-12-25T22:04:21.263Z,16.13
2022-12-25T22:07:07.162Z,10.40
2022-12-25T22:09:34.715Z,17.40
2022-12-25T22:12:21.804Z,16.00
2022-12-25T22:14:59.190Z,15.65
2022-12-25T22:17:51.748Z,14.25
2022-12-25T22:20:22.472Z,14.88
2022-12-25T22:22:50.128Z,10.85
2022-12-25T22:25:17.928Z,13.73
2022-12-25T22:27:46.831Z,13.15
2022-12-25T22:30:26.173Z,12.88
2022-12-25T22:32:54.106Z,12.32
2022-12-25T22:35:22.394Z,12.30
2022-12-25T22:37:49.923Z,13.60
2022-12-25T22:40:19.464Z,13.27
2022-12-25T22:42:47.266Z,12.30
2022-12-25T22:45:15.128Z,14.27
2022-12-25T22:47:42.457Z,12.77
2022-12-25T22:50:17.606Z,11.77
2022-12-25T22:52:45.895Z,14.88
2022-12-25T22:55:18.648Z,12.48
2022-12-25T22:57:46.123Z,14.95
2022-12-25T23:00:14.249Z,11.35
2022-12-25T23:02:41.473Z,13.97
2022-12-25T23:05:09.303Z,17.75
2022-12-25T23:07:36.432Z,13.07
2022-12-25T23:10:05.578Z,15.15
2022-12-25T23:12:50.938Z,14.27
2022-12-25T23:15:18.190Z,13.40
2022-12-25T23:18:03.991Z,11.57
2022-12-25T23:20:51.378Z,12.70
2022-12-25T23:23:37.283Z,15.05
2022-12-25T23:26:07.563Z,17.30
2022-12-25T23:29:00.942Z,19.13
2022-12-25T23:31:39.598Z,15.13
2022-12-25T23:34:07.565Z,13.05
2022-12-25T23:36:35.015Z,13.00
2022-12-25T23:39:09.763Z,15.15
2022-12-25T23:41:42.930Z,12.80
2022-12-25T23:44:12.084Z,13.88
2022-12-25T23:46:39.776Z,12.95
2022-12-25T23:49:07.485Z,13.55
2022-12-25T23:51:39.819Z,15.38
2022-12-25T23:54:07.793Z,12.97
2022-12-25T23:56:35.002Z,18.33
2022-12-25T23:59:03.362Z,14.68
